createdAt,value
2018-06-29T07:45:11.296Z,29.50
2018-06-29T07:45:45.988Z,29.40
2018-06-29T07:46:23.277Z,29.50
2018-06-29T07:46:56.312Z,29.50
2018-06-29T07:47:30.121Z,29.70
2018-06-29T07:48:03.187Z,29.60
2018-06-29T07:48:37.018Z,29.70
2018-06-29T07:49:09.629Z,29.70
2018-06-29T07:49:42.162Z,29.70
2018-06-29T07:50:19.359Z,29.80
2018-06-29T07:50:51.909Z,29.80
2018-06-29T07:51:24.675Z,29.80
2018-06-29T07:52:36.351Z,29.90
2018-06-29T07:53:08.903Z,29.90
2018-06-29T07:53:41.439Z,29.90
2018-06-29T07:54:14.657Z,30.00
2018-06-29T07:54:47.308Z,30.00
2018-06-29T07:55:20.977Z,30.00
2018-06-29T07:55:54.032Z,30.10
2018-06-29T07:57:09.346Z,30.10
2018-06-29T07:57:42.394Z,30.10
2018-06-29T07:58:15.461Z,30.20
2018-06-29T07:59:26.525Z,30.30
2018-06-29T07:59:59.576Z,30.30
2018-06-29T08:00:33.413Z,30.40
2018-06-29T08:01:06.455Z,30.40
2018-06-29T08:01:39.539Z,30.40
2018-06-29T08:02:13.157Z,30.40
2018-06-29T08:02:49.680Z,30.50
2018-06-29T08:03:30.682Z,30.40
2018-06-29T08:04:03.736Z,30.40
2018-06-29T08:04:36.817Z,30.40
2018-06-29T08:05:09.864Z,30.40
2018-06-29T08:05:43.687Z,30.50
2018-06-29T08:06:16.727Z,30.50
2018-06-29T08:06:50.830Z,30.60
2018-06-29T08:07:23.892Z,30.60
2018-06-29T08:07:57.702Z,30.50
2018-06-29T08:08:30.767Z,30.50
2018-06-29T08:09:03.824Z,30.60
2018-06-29T08:09:36.904Z,30.60
2018-06-29T08:10:09.931Z,30.60
2018-06-29T08:10:42.995Z,30.60
2018-06-29T08:11:16.780Z,30.60
2018-06-29T08:11:49.816Z,30.60
2018-06-29T08:12:22.857Z,30.70
2018-06-29T08:12:55.896Z,30.70
2018-06-29T08:13:29.688Z,30.80
2018-06-29T08:14:02.735Z,30.70
2018-06-29T08:14:36.599Z,30.90
2018-06-29T08:15:10.377Z,30.80
2018-06-29T08:15:43.403Z,30.90
2018-06-29T08:16:17.211Z,31.00
2018-06-29T08:16:51.033Z,31.00
2018-06-29T08:17:24.081Z,31.00
2018-06-29T08:17:57.840Z,31.10
2018-06-29T08:18:30.879Z,31.10
2018-06-29T08:19:03.950Z,31.10
2018-06-29T08:19:38.737Z,31.10
2018-06-29T08:20:11.836Z,31.00
2018-06-29T08:20:44.464Z,31.00
2018-06-29T08:21:17.445Z,31.00
2018-06-29T08:21:51.253Z,31.10
2018-06-29T08:22:24.280Z,31.10
2018-06-29T08:22:56.889Z,31.20
2018-06-29T08:23:29.836Z,31.20
2018-06-29T08:24:02.876Z,31.20
2018-06-29T08:24:35.929Z,31.30
2018-06-29T08:25:08.983Z,31.20
2018-06-29T08:25:41.580Z,31.20
2018-06-29T08:26:20.517Z,31.20
2018-06-29T08:26:53.560Z,31.20
2018-06-29T08:27:26.604Z,31.30
2018-06-29T08:27:59.707Z,31.40
2018-06-29T08:28:32.730Z,31.50
2018-06-29T08:29:05.861Z,31.50
2018-06-29T08:29:38.895Z,31.50
2018-06-29T08:30:12.697Z,31.60
2018-06-29T08:30:45.724Z,31.60
2018-06-29T08:31:18.788Z,31.50
2018-06-29T08:31:51.811Z,31.60
2018-06-29T08:32:24.856Z,31.60
2018-06-29T08:32:57.924Z,31.60
2018-06-29T08:33:30.976Z,31.50
2018-06-29T08:34:04.021Z,31.60
2018-06-29T08:34:37.056Z,31.60
2018-06-29T08:35:10.133Z,31.60
2018-06-29T08:35:43.190Z,31.60
2018-06-29T08:36:16.231Z,31.70
2018-06-29T08:36:49.284Z,31.70
2018-06-29T08:37:23.117Z,31.70
2018-06-29T08:37:56.150Z,31.70
2018-06-29T08:38:29.979Z,31.80
2018-06-29T08:39:02.821Z,31.80
2018-06-29T08:39:35.806Z,31.80
2018-06-29T08:40:08.918Z,31.70
2018-06-29T08:40:41.952Z,31.70
2018-06-29T08:41:14.984Z,31.70
2018-06-29T08:41:48.041Z,31.70
2018-06-29T08:42:21.088Z,31.80
2018-06-29T08:42:54.123Z,31.80
2018-06-29T08:43:27.195Z,31.80
2018-06-29T08:44:00.229Z,31.80
2018-06-29T08:44:33.272Z,31.80
2018-06-29T08:45:06.343Z,31.80
2018-06-29T08:45:39.387Z,32.00
2018-06-29T08:46:12.428Z,32.00
2018-06-29T08:46:45.485Z,32.00
2018-06-29T08:47:19.267Z,32.00
2018-06-29T08:47:52.288Z,32.00
2018-06-29T08:48:25.336Z,32.00
2018-06-29T08:48:58.376Z,32.10
2018-06-29T08:49:32.209Z,32.10
2018-06-29T08:50:05.248Z,32.10
2018-06-29T08:50:38.285Z,32.10
2018-06-29T08:51:11.319Z,32.10
2018-06-29T08:51:44.358Z,32.10
2018-06-29T08:52:17.432Z,32.10
2018-06-29T08:52:50.467Z,32.10
2018-06-29T08:53:23.537Z,31.90
2018-06-29T08:53:56.584Z,32.00
2018-06-29T08:54:30.422Z,31.90
2018-06-29T08:55:03.506Z,31.90
2018-06-29T08:55:36.740Z,31.80
2018-06-29T08:56:09.783Z,31.80
2018-06-29T08:56:43.805Z,31.70
2018-06-29T08:57:16.867Z,31.70
2018-06-29T08:57:50.670Z,31.70
2018-06-29T08:58:23.907Z,31.70
2018-06-29T08:58:57.001Z,31.70
2018-06-29T08:59:29.996Z,31.70
2018-06-29T09:00:03.031Z,31.80
2018-06-29T09:00:36.092Z,31.70
2018-06-29T09:01:09.168Z,31.70
2018-06-29T09:01:42.202Z,31.70
2018-06-29T09:02:15.280Z,31.70
2018-06-29T09:02:48.351Z,31.60
2018-06-29T09:03:21.402Z,31.60
2018-06-29T09:03:55.192Z,31.60
2018-06-29T09:04:28.995Z,31.60
2018-06-29T09:05:02.079Z,31.50
2018-06-29T09:05:35.094Z,31.60
2018-06-29T09:06:09.170Z,31.60
2018-06-29T09:06:42.424Z,31.50
2018-06-29T09:07:16.997Z,31.50
2018-06-29T09:07:50.028Z,31.50
2018-06-29T09:08:23.064Z,31.50
2018-06-29T09:08:56.117Z,31.50
2018-06-29T09:09:29.885Z,31.50
2018-06-29T09:10:02.952Z,31.60
2018-06-29T09:10:36.019Z,31.60
2018-06-29T09:11:09.076Z,31.60
2018-06-29T09:11:42.135Z,31.50
2018-06-29T09:12:15.169Z,31.50
2018-06-29T09:12:48.212Z,31.50
2018-06-29T09:13:22.016Z,31.50
2018-06-29T09:13:55.048Z,31.40
2018-06-29T09:14:28.095Z,31.50
2018-06-29T09:15:01.142Z,31.50
2018-06-29T09:16:14.243Z,31.50
2018-06-29T09:16:50.547Z,31.50
2018-06-29T09:17:23.595Z,31.50
2018-06-29T09:17:56.780Z,31.60
2018-06-29T09:18:29.811Z,31.60
2018-06-29T09:19:02.869Z,31.50
2018-06-29T09:19:35.904Z,31.50
2018-06-29T09:20:08.942Z,31.60
2018-06-29T09:20:42.005Z,31.60
2018-06-29T09:21:15.816Z,31.60
2018-06-29T09:21:48.864Z,31.60
2018-06-29T09:22:21.993Z,31.60
2018-06-29T09:22:55.046Z,31.60
2018-06-29T09:23:28.084Z,31.50
2018-06-29T09:24:01.140Z,31.50
2018-06-29T09:24:34.185Z,31.50
2018-06-29T09:25:07.226Z,31.50
2018-06-29T09:25:41.603Z,31.50
2018-06-29T09:26:14.651Z,31.50
2018-06-29T09:26:47.686Z,31.50
2018-06-29T09:27:20.745Z,31.50
2018-06-29T09:27:54.545Z,31.60
2018-06-29T09:28:27.626Z,31.60
2018-06-29T09:29:00.648Z,31.60
2018-06-29T09:29:33.725Z,31.70
2018-06-29T09:30:07.524Z,31.80
2018-06-29T09:30:42.092Z,31.90
2018-06-29T09:31:15.131Z,31.90
2018-06-29T09:31:48.167Z,32.00
2018-06-29T09:32:21.212Z,32.10
2018-06-29T09:32:54.259Z,32.10
2018-06-29T09:33:27.304Z,32.10
2018-06-29T09:34:00.978Z,32.10
2018-06-29T09:34:34.012Z,32.20
2018-06-29T09:35:07.065Z,32.20
2018-06-29T09:35:40.140Z,32.20
2018-06-29T09:36:13.210Z,32.30
2018-06-29T09:36:46.237Z,32.30
2018-06-29T09:37:19.302Z,32.40
2018-06-29T09:37:53.124Z,32.50
2018-06-29T09:38:26.161Z,32.40
2018-06-29T09:38:59.256Z,32.60
2018-06-29T09:39:32.301Z,32.60
2018-06-29T09:40:06.887Z,32.80
2018-06-29T09:40:39.945Z,32.80
2018-06-29T09:41:12.972Z,32.90
2018-06-29T09:41:46.012Z,32.90
2018-06-29T09:42:19.065Z,33.00
2018-06-29T09:42:52.110Z,33.10
2018-06-29T09:43:25.150Z,33.10
2018-06-29T09:43:58.956Z,33.20
2018-06-29T09:44:32.767Z,33.30
2018-06-29T09:45:05.850Z,33.30
2018-06-29T09:45:38.932Z,33.40
2018-06-29T09:46:12.020Z,33.50
2018-06-29T09:46:45.331Z,33.50
2018-06-29T09:47:18.474Z,33.60
2018-06-29T09:47:51.523Z,33.60
2018-06-29T09:48:25.323Z,33.70
2018-06-29T09:48:58.606Z,33.70
2018-06-29T09:49:31.654Z,33.70
2018-06-29T09:50:04.713Z,33.70
2018-06-29T09:50:37.787Z,33.80
2018-06-29T09:51:10.844Z,33.70
2018-06-29T09:51:43.903Z,33.70
2018-06-29T09:52:16.949Z,33.70
2018-06-29T09:52:49.995Z,33.70
2018-06-29T09:53:23.812Z,33.80
2018-06-29T09:53:56.896Z,33.80
2018-06-29T09:54:29.935Z,33.80
2018-06-29T09:55:02.998Z,33.80
2018-06-29T09:55:36.064Z,33.80
2018-06-29T09:56:09.132Z,33.80
2018-06-29T09:56:42.172Z,33.90
2018-06-29T09:57:15.221Z,33.90
2018-06-29T09:57:49.016Z,34.00
2018-06-29T09:58:22.069Z,34.00
2018-06-29T09:58:55.120Z,34.10
2018-06-29T09:59:28.157Z,34.00
2018-06-29T10:00:01.225Z,34.00
2018-06-29T10:00:35.064Z,33.90
2018-06-29T10:01:08.172Z,33.90
2018-06-29T10:01:41.433Z,33.90
2018-06-29T10:02:14.705Z,33.80
2018-06-29T10:02:47.753Z,33.80
2018-06-29T10:03:20.807Z,33.90
2018-06-29T10:03:54.836Z,33.80
2018-06-29T10:04:27.870Z,33.90
2018-06-29T10:05:01.687Z,33.90
2018-06-29T10:05:34.729Z,33.80
2018-06-29T10:06:08.579Z,33.80
2018-06-29T10:06:41.633Z,33.80
2018-06-29T10:07:14.680Z,33.80
2018-06-29T10:07:48.480Z,33.80
2018-06-29T10:08:21.527Z,33.80
2018-06-29T10:08:54.588Z,33.80
2018-06-29T10:09:27.645Z,33.70
2018-06-29T10:10:00.668Z,33.60
2018-06-29T10:10:34.487Z,33.60
2018-06-29T10:11:07.532Z,33.60
2018-06-29T10:11:41.358Z,33.40
2018-06-29T10:12:14.417Z,33.40
2018-06-29T10:12:48.295Z,33.20
2018-06-29T10:13:22.343Z,33.10
2018-06-29T10:13:55.409Z,33.10
2018-06-29T10:14:28.514Z,33.10
2018-06-29T10:15:02.269Z,33.20
2018-06-29T10:15:35.331Z,33.10
2018-06-29T10:16:09.128Z,33.20
2018-06-29T10:16:42.181Z,33.20
2018-06-29T10:17:16.001Z,33.20
2018-06-29T10:17:49.441Z,33.20
2018-06-29T10:18:22.493Z,33.20
2018-06-29T10:18:55.532Z,33.20
2018-06-29T10:19:28.629Z,33.30
2018-06-29T10:20:02.495Z,33.40
2018-06-29T10:20:35.483Z,33.40
2018-06-29T10:21:08.522Z,33.30
2018-06-29T10:21:41.572Z,33.40
2018-06-29T10:22:14.623Z,33.40
2018-06-29T10:22:47.660Z,33.50
2018-06-29T10:23:20.705Z,33.60
2018-06-29T10:23:53.740Z,33.60
2018-06-29T10:24:26.771Z,33.70
2018-06-29T10:24:59.809Z,33.70
2018-06-29T10:25:32.894Z,33.70
2018-06-29T10:26:05.897Z,33.70
2018-06-29T10:26:38.964Z,33.80
2018-06-29T10:27:12.037Z,33.90
2018-06-29T10:27:45.053Z,33.80
2018-06-29T10:28:18.097Z,33.90
2018-06-29T10:28:52.496Z,33.90
2018-06-29T10:29:26.308Z,33.90
2018-06-29T10:29:59.353Z,33.90
2018-06-29T10:30:32.641Z,34.00
2018-06-29T10:31:05.681Z,33.90
2018-06-29T10:31:38.900Z,33.90
2018-06-29T10:32:12.753Z,33.90
2018-06-29T10:32:45.805Z,33.90
2018-06-29T10:33:18.848Z,33.90
2018-06-29T10:33:52.134Z,34.00
2018-06-29T10:34:25.930Z,34.10
2018-06-29T10:34:58.976Z,34.10
2018-06-29T10:35:32.033Z,34.20
2018-06-29T10:36:05.313Z,34.20
2018-06-29T10:36:39.086Z,34.20
2018-06-29T10:37:12.897Z,34.30
2018-06-29T10:37:45.962Z,34.30
2018-06-29T10:38:19.037Z,34.30
2018-06-29T10:38:52.392Z,34.20
2018-06-29T10:39:25.379Z,34.20
2018-06-29T10:39:59.392Z,34.20
2018-06-29T10:40:32.661Z,34.20
2018-06-29T10:41:05.743Z,34.30
2018-06-29T10:41:38.808Z,34.30
2018-06-29T10:42:11.858Z,34.40
2018-06-29T10:42:44.909Z,34.50
2018-06-29T10:43:17.990Z,34.60
2018-06-29T10:43:51.243Z,34.50
2018-06-29T10:44:24.507Z,34.50
2018-06-29T10:44:57.797Z,34.50
2018-06-29T10:45:30.860Z,34.50
2018-06-29T10:46:04.129Z,34.40
2018-06-29T10:47:15.195Z,34.30
2018-06-29T10:47:48.233Z,34.30
2018-06-29T10:48:22.051Z,34.50
2018-06-29T10:48:55.099Z,34.50
2018-06-29T10:49:28.909Z,34.50
2018-06-29T10:50:01.966Z,34.50
2018-06-29T10:50:35.787Z,34.60
2018-06-29T10:51:08.833Z,34.60
2018-06-29T10:51:42.660Z,34.70
2018-06-29T10:52:15.700Z,34.70
2018-06-29T10:52:49.048Z,34.70
2018-06-29T10:53:23.460Z,34.80
2018-06-29T10:53:56.497Z,34.70
2018-06-29T10:54:29.543Z,34.80
2018-06-29T10:55:04.932Z,34.90
2018-06-29T10:55:38.012Z,34.90
2018-06-29T10:56:11.060Z,34.90
2018-06-29T10:56:44.098Z,34.90
2018-06-29T10:57:17.919Z,35.00
2018-06-29T10:57:50.953Z,34.90
2018-06-29T10:58:23.987Z,35.00
2018-06-29T10:58:57.030Z,35.10
2018-06-29T10:59:30.056Z,35.10
2018-06-29T11:00:03.094Z,35.10
2018-06-29T11:00:36.127Z,35.20
2018-06-29T11:01:09.163Z,35.10
2018-06-29T11:01:42.198Z,35.20
2018-06-29T11:02:15.250Z,35.30
2018-06-29T11:02:48.284Z,35.30
2018-06-29T11:03:21.355Z,35.30
2018-06-29T11:03:54.453Z,35.30
2018-06-29T11:04:27.485Z,35.30
2018-06-29T11:05:00.524Z,35.20
2018-06-29T11:05:33.673Z,35.30
2018-06-29T11:06:06.647Z,35.30
2018-06-29T11:06:39.677Z,35.30
2018-06-29T11:07:12.728Z,35.40
2018-06-29T11:07:46.076Z,35.40
2018-06-29T11:08:18.598Z,35.40
2018-06-29T11:08:51.116Z,35.50
2018-06-29T11:09:23.628Z,35.50
2018-06-29T11:09:56.577Z,35.60
2018-06-29T11:10:30.380Z,35.60
2018-06-29T11:11:03.474Z,35.60
2018-06-29T11:11:36.476Z,35.50
2018-06-29T11:12:09.533Z,35.50
2018-06-29T11:12:42.577Z,35.50
2018-06-29T11:13:15.627Z,35.60
2018-06-29T11:13:48.656Z,35.70
2018-06-29T11:14:21.769Z,35.70
2018-06-29T11:14:54.826Z,35.80
2018-06-29T11:15:27.870Z,35.70
2018-06-29T11:16:00.963Z,35.70
2018-06-29T11:16:33.955Z,35.80
2018-06-29T11:17:07.014Z,35.80
2018-06-29T11:17:40.235Z,35.90
2018-06-29T11:18:13.289Z,36.00
2018-06-29T11:18:46.354Z,36.00
2018-06-29T11:19:19.392Z,36.10
2018-06-29T11:19:52.454Z,36.20
2018-06-29T11:20:26.247Z,36.20
2018-06-29T11:21:00.048Z,36.20
2018-06-29T11:21:33.091Z,36.20
2018-06-29T11:22:06.148Z,36.20
2018-06-29T11:22:39.255Z,36.30
2018-06-29T11:23:12.257Z,36.30
2018-06-29T11:23:45.317Z,36.30
2018-06-29T11:24:19.125Z,36.50
2018-06-29T11:24:52.192Z,36.50
2018-06-29T11:25:25.973Z,36.30
2018-06-29T11:25:59.782Z,36.30
2018-06-29T11:26:32.825Z,36.30
2018-06-29T11:27:05.856Z,36.20
2018-06-29T11:27:38.907Z,36.20
2018-06-29T11:28:11.955Z,36.30
2018-06-29T11:28:45.001Z,36.30
2018-06-29T11:29:18.032Z,36.40
2018-06-29T11:29:51.073Z,36.50
2018-06-29T11:30:24.161Z,36.50
2018-06-29T11:30:57.169Z,36.50
2018-06-29T11:31:30.201Z,36.40
2018-06-29T11:32:03.642Z,36.50
2018-06-29T11:32:36.665Z,36.50
2018-06-29T11:33:10.477Z,36.70
2018-06-29T11:33:43.542Z,36.70
2018-06-29T11:34:17.356Z,36.70
2018-06-29T11:34:51.317Z,36.50
2018-06-29T11:35:25.120Z,36.50
2018-06-29T11:35:58.940Z,36.40
2018-06-29T11:36:32.776Z,36.40
2018-06-29T11:37:05.823Z,36.40
2018-06-29T11:37:39.531Z,36.40
2018-06-29T11:38:12.566Z,36.40
2018-06-29T11:38:45.665Z,36.40
2018-06-29T11:39:18.708Z,36.50
2018-06-29T11:39:51.760Z,36.40
2018-06-29T11:40:25.583Z,36.30
2018-06-29T11:40:58.640Z,36.20
2018-06-29T11:41:32.444Z,36.20
2018-06-29T11:42:05.508Z,36.20
2018-06-29T11:42:38.618Z,36.30
2018-06-29T11:43:11.602Z,36.20
2018-06-29T11:43:44.647Z,36.30
2018-06-29T11:44:17.809Z,36.40
2018-06-29T11:44:50.771Z,36.40
2018-06-29T11:45:23.816Z,36.60
2018-06-29T11:45:56.873Z,36.60
2018-06-29T11:46:29.917Z,36.50
2018-06-29T11:47:03.169Z,36.60
2018-06-29T11:47:36.232Z,36.70
2018-06-29T11:48:09.321Z,36.70
2018-06-29T11:48:42.434Z,36.70
2018-06-29T11:49:15.401Z,36.80
2018-06-29T11:49:48.449Z,36.70
2018-06-29T11:50:21.497Z,36.70
2018-06-29T11:50:54.542Z,36.70
2018-06-29T11:51:27.599Z,36.70
2018-06-29T11:52:01.405Z,36.90
2018-06-29T11:52:34.512Z,36.80
2018-06-29T11:53:07.570Z,36.80
2018-06-29T11:53:40.617Z,36.70
2018-06-29T11:54:13.669Z,36.60
2018-06-29T11:54:46.706Z,36.70
2018-06-29T11:55:19.745Z,36.60
2018-06-29T11:55:52.783Z,36.50
2018-06-29T11:56:25.838Z,36.50
2018-06-29T11:56:58.879Z,36.60
2018-06-29T11:57:31.948Z,36.60
2018-06-29T11:58:04.993Z,36.70
2018-06-29T11:58:38.806Z,36.70
2018-06-29T11:59:11.853Z,36.70
2018-06-29T11:59:44.906Z,36.70
2018-06-29T12:00:17.966Z,36.80
2018-06-29T12:00:51.007Z,36.80
2018-06-29T12:01:24.044Z,36.60
2018-06-29T12:01:57.083Z,36.60
2018-06-29T12:02:30.128Z,36.50
2018-06-29T12:03:03.970Z,36.70
2018-06-29T12:03:37.001Z,36.60
2018-06-29T12:04:10.051Z,36.70
2018-06-29T12:04:43.910Z,36.60
2018-06-29T12:05:16.951Z,36.60
2018-06-29T12:05:49.989Z,36.70
2018-06-29T12:06:23.034Z,36.70
2018-06-29T12:06:56.073Z,36.80
2018-06-29T12:07:29.172Z,36.80
2018-06-29T12:08:02.246Z,36.70
2018-06-29T12:08:35.298Z,36.80
2018-06-29T12:09:09.296Z,36.90
2018-06-29T12:09:42.341Z,36.80
2018-06-29T12:10:15.380Z,36.90
2018-06-29T12:10:48.422Z,37.00
2018-06-29T12:11:21.473Z,37.10
2018-06-29T12:11:55.301Z,37.20
2018-06-29T12:12:28.397Z,37.20
2018-06-29T12:13:01.475Z,37.30
2018-06-29T12:13:34.506Z,37.40
2018-06-29T12:14:07.559Z,37.50
2018-06-29T12:14:40.824Z,37.50
2018-06-29T12:15:13.884Z,37.40
2018-06-29T12:15:47.167Z,37.50
2018-06-29T12:16:20.196Z,37.40
2018-06-29T12:16:53.229Z,37.30
2018-06-29T12:17:26.285Z,37.30
2018-06-29T12:17:59.338Z,37.40
2018-06-29T12:18:32.382Z,37.30
2018-06-29T12:19:06.405Z,37.30
2018-06-29T12:19:39.474Z,37.30
2018-06-29T12:20:12.764Z,37.40
2018-06-29T12:20:45.931Z,37.40
2018-06-29T12:21:18.925Z,37.40
2018-06-29T12:21:52.001Z,37.30
2018-06-29T12:22:25.036Z,37.20
2018-06-29T12:22:58.091Z,37.10
2018-06-29T12:23:31.151Z,37.20
2018-06-29T12:24:04.207Z,37.10
2018-06-29T12:24:37.245Z,37.00
2018-06-29T12:25:11.051Z,37.10
2018-06-29T12:25:44.108Z,37.00
2018-06-29T12:26:17.261Z,37.10
2018-06-29T12:26:50.287Z,37.20
2018-06-29T12:27:23.332Z,37.20
2018-06-29T12:27:57.208Z,37.10
2018-06-29T12:28:30.969Z,37.10
2018-06-29T12:29:04.027Z,37.10
2018-06-29T12:29:37.057Z,37.10
2018-06-29T12:30:10.873Z,37.20
2018-06-29T12:30:43.903Z,37.10
2018-06-29T12:31:16.952Z,37.00
2018-06-29T12:31:49.993Z,37.00
2018-06-29T12:32:23.041Z,37.00
2018-06-29T12:32:56.101Z,37.10
2018-06-29T12:33:29.147Z,37.20
2018-06-29T12:34:02.191Z,37.30
2018-06-29T12:34:35.255Z,37.30
2018-06-29T12:35:09.061Z,37.30
2018-06-29T12:35:42.107Z,37.30
2018-06-29T12:36:15.157Z,37.30
2018-06-29T12:36:48.194Z,37.40
2018-06-29T12:37:21.224Z,37.30
2018-06-29T12:37:54.698Z,37.30
2018-06-29T12:38:27.722Z,37.30
2018-06-29T12:39:00.751Z,37.40
2018-06-29T12:39:33.804Z,37.30
2018-06-29T12:40:06.864Z,37.30
2018-06-29T12:40:39.912Z,37.30
2018-06-29T12:41:12.930Z,37.20
2018-06-29T12:41:45.961Z,37.10
2018-06-29T12:42:19.001Z,37.10
2018-06-29T12:42:52.041Z,37.00
2018-06-29T12:43:25.085Z,36.80
2018-06-29T12:43:58.183Z,36.80
2018-06-29T12:44:31.189Z,36.80
2018-06-29T12:45:04.225Z,36.70
2018-06-29T12:45:37.244Z,36.60
2018-06-29T12:46:10.299Z,36.60
2018-06-29T12:46:43.324Z,36.60
2018-06-29T12:47:17.138Z,36.40
2018-06-29T12:47:50.173Z,36.40
2018-06-29T12:48:23.232Z,36.40
2018-06-29T12:48:56.262Z,36.40
2018-06-29T12:49:29.285Z,36.40
2018-06-29T12:50:02.334Z,36.30
2018-06-29T12:50:35.377Z,36.20
2018-06-29T12:51:08.422Z,36.20
2018-06-29T12:51:41.457Z,36.30
2018-06-29T12:52:14.489Z,36.30
2018-06-29T12:52:48.293Z,36.20
2018-06-29T12:53:21.330Z,36.20
2018-06-29T12:53:54.356Z,36.10
2018-06-29T12:54:27.384Z,36.20
2018-06-29T12:55:00.436Z,36.20
2018-06-29T12:55:33.485Z,36.00
2018-06-29T12:56:06.766Z,36.00
2018-06-29T12:56:40.568Z,35.90
2018-06-29T12:57:14.365Z,35.90
2018-06-29T12:57:47.370Z,35.90
2018-06-29T12:58:20.440Z,35.80
2018-06-29T12:58:53.473Z,35.90
2018-06-29T12:59:26.503Z,35.80
2018-06-29T12:59:59.548Z,35.80
2018-06-29T13:00:32.588Z,35.80
2018-06-29T13:01:05.660Z,35.90
2018-06-29T13:01:38.694Z,35.80
2018-06-29T13:02:11.738Z,35.80
2018-06-29T13:02:44.785Z,35.70
2018-06-29T13:03:18.601Z,35.70
2018-06-29T13:03:51.666Z,35.70
2018-06-29T13:04:24.713Z,35.70
2018-06-29T13:04:58.509Z,35.40
2018-06-29T13:05:31.759Z,35.30
2018-06-29T13:06:04.613Z,35.30
2018-06-29T13:06:37.649Z,35.30
2018-06-29T13:07:11.457Z,35.10
2018-06-29T13:07:44.516Z,35.10
2018-06-29T13:08:17.557Z,35.00
2018-06-29T13:08:50.607Z,35.00
2018-06-29T13:09:23.638Z,35.00
2018-06-29T13:09:56.673Z,35.00
2018-06-29T13:10:29.709Z,35.00
2018-06-29T13:11:02.751Z,35.00
2018-06-29T13:11:35.781Z,35.00
2018-06-29T13:12:08.836Z,35.10
2018-06-29T13:12:41.871Z,35.10
2018-06-29T13:13:14.930Z,35.10
2018-06-29T13:13:47.976Z,35.00
2018-06-29T13:14:20.999Z,35.10
2018-06-29T13:14:54.036Z,35.00
2018-06-29T13:15:27.078Z,35.00
2018-06-29T13:16:00.114Z,35.10
2018-06-29T13:16:33.928Z,35.00
2018-06-29T13:17:06.965Z,35.00
2018-06-29T13:17:40.025Z,35.00
2018-06-29T13:18:13.047Z,35.00
2018-06-29T13:18:46.094Z,35.00
2018-06-29T13:19:19.141Z,34.90
2018-06-29T13:19:52.165Z,34.70
2018-06-29T13:20:25.205Z,34.60
2018-06-29T13:20:59.021Z,34.70
2018-06-29T13:21:32.066Z,34.70
2018-06-29T13:22:05.729Z,34.60
2018-06-29T13:22:38.767Z,34.60
2018-06-29T13:23:11.800Z,34.60
2018-06-29T13:23:44.858Z,34.60
2018-06-29T13:24:17.881Z,34.60
2018-06-29T13:24:50.960Z,34.60
2018-06-29T13:25:23.990Z,34.60
2018-06-29T13:25:57.021Z,34.60
2018-06-29T13:26:30.068Z,34.60
2018-06-29T13:27:03.927Z,34.60
2018-06-29T13:27:36.958Z,34.60
2018-06-29T13:28:10.005Z,34.60
2018-06-29T13:28:43.065Z,34.60
2018-06-29T13:29:16.111Z,34.60
2018-06-29T13:29:49.136Z,34.60
2018-06-29T13:30:22.949Z,34.70
2018-06-29T13:30:56.189Z,34.60
2018-06-29T13:31:29.032Z,34.60
2018-06-29T13:32:02.100Z,34.60
2018-06-29T13:32:35.133Z,34.50
2018-06-29T13:33:08.160Z,34.40
2018-06-29T13:33:41.533Z,34.40
2018-06-29T13:34:14.504Z,34.40
2018-06-29T13:34:47.556Z,34.50
2018-06-29T13:35:20.611Z,34.60
2018-06-29T13:35:53.670Z,34.60
2018-06-29T13:36:26.713Z,34.60
2018-06-29T13:36:59.758Z,34.70
2018-06-29T13:37:32.789Z,34.70
2018-06-29T13:38:05.833Z,34.70
2018-06-29T13:38:38.981Z,34.80
2018-06-29T13:39:12.022Z,34.80
2018-06-29T13:39:45.181Z,34.80
2018-06-29T13:40:18.225Z,34.80
2018-06-29T13:40:51.290Z,34.80
2018-06-29T13:41:24.339Z,34.80
2018-06-29T13:41:58.145Z,34.80
2018-06-29T13:42:31.184Z,34.90
2018-06-29T13:43:04.237Z,34.90
2018-06-29T13:43:37.278Z,34.80
2018-06-29T13:44:10.386Z,34.80
2018-06-29T13:44:43.383Z,34.80
2018-06-29T13:45:16.449Z,34.90
2018-06-29T13:45:49.786Z,34.80
2018-06-29T13:46:22.868Z,34.90
2018-06-29T13:46:55.917Z,34.90
2018-06-29T13:47:28.935Z,34.90
2018-06-29T13:48:01.994Z,34.90
2018-06-29T13:48:35.074Z,34.90
2018-06-29T13:49:08.129Z,34.90
2018-06-29T13:49:41.929Z,34.80
2018-06-29T13:50:14.968Z,34.80
2018-06-29T13:50:48.015Z,34.90
2018-06-29T13:51:21.071Z,34.90
2018-06-29T13:51:54.114Z,34.80
2018-06-29T13:52:27.151Z,34.80
2018-06-29T13:53:00.206Z,34.80
2018-06-29T13:53:33.236Z,34.70
2018-06-29T13:54:06.297Z,34.70
2018-06-29T13:54:39.343Z,34.70
2018-06-29T13:55:12.396Z,34.70
2018-06-29T13:55:45.440Z,34.70
2018-06-29T13:56:19.257Z,34.70
2018-06-29T13:56:52.312Z,34.70
2018-06-29T13:57:25.361Z,34.80
2018-06-29T13:57:59.183Z,34.80
2018-06-29T13:58:32.232Z,34.70
2018-06-29T13:59:05.297Z,34.80
2018-06-29T13:59:38.363Z,34.80
2018-06-29T14:00:11.440Z,34.80
2018-06-29T14:00:44.488Z,34.70
2018-06-29T14:01:17.541Z,34.80
2018-06-29T14:01:50.593Z,34.70
2018-06-29T14:02:23.709Z,34.70
2018-06-29T14:02:56.727Z,34.70
2018-06-29T14:03:29.787Z,34.60
2018-06-29T14:04:02.858Z,34.60
2018-06-29T14:04:35.914Z,34.60
2018-06-29T14:05:08.976Z,34.60
2018-06-29T14:05:42.016Z,34.60
2018-06-29T14:06:15.072Z,34.60
2018-06-29T14:06:48.119Z,34.50
2018-06-29T14:07:21.181Z,34.50
2018-06-29T14:07:54.232Z,34.40
2018-06-29T14:08:27.289Z,34.40
2018-06-29T14:09:01.115Z,34.40
2018-06-29T14:09:34.846Z,34.40
2018-06-29T14:10:07.884Z,34.40
2018-06-29T14:10:40.961Z,34.30
2018-06-29T14:11:14.006Z,34.30
2018-06-29T14:11:47.054Z,34.40
2018-06-29T14:12:20.113Z,34.30
2018-06-29T14:12:53.174Z,34.30
2018-06-29T14:13:26.223Z,34.30
2018-06-29T14:13:59.308Z,34.30
2018-06-29T14:14:32.345Z,34.30
2018-06-29T14:15:05.394Z,34.30
2018-06-29T14:15:38.448Z,34.30
2018-06-29T14:16:11.514Z,34.20
2018-06-29T14:16:44.573Z,34.30
2018-06-29T14:17:17.606Z,34.20
2018-06-29T14:17:50.637Z,34.20
2018-06-29T14:18:23.710Z,34.20
2018-06-29T14:18:57.500Z,34.20
2018-06-29T14:19:30.547Z,34.20
2018-06-29T14:20:04.361Z,34.00
2018-06-29T14:20:37.408Z,34.00
2018-06-29T14:21:10.547Z,34.00
2018-06-29T14:21:43.585Z,34.00
2018-06-29T14:22:16.641Z,34.00
2018-06-29T14:22:50.438Z,34.00
2018-06-29T14:23:23.490Z,34.10
2018-06-29T14:23:56.543Z,34.10
2018-06-29T14:24:29.576Z,34.10
2018-06-29T14:25:02.616Z,34.10
2018-06-29T14:25:35.668Z,34.10
2018-06-29T14:26:08.721Z,34.10
2018-06-29T14:26:42.537Z,34.00
2018-06-29T14:27:15.574Z,34.00
2018-06-29T14:27:48.611Z,34.00
2018-06-29T14:28:22.416Z,34.00
2018-06-29T14:28:56.238Z,34.00
2018-06-29T14:29:29.512Z,34.00
2018-06-29T14:30:02.585Z,34.00
2018-06-29T14:30:35.621Z,34.00
2018-06-29T14:31:09.295Z,34.00
2018-06-29T14:31:42.343Z,34.00
2018-06-29T14:32:15.390Z,34.00
2018-06-29T14:32:48.436Z,34.00
2018-06-29T14:33:22.243Z,33.90
2018-06-29T14:33:55.304Z,33.90
2018-06-29T14:34:28.359Z,33.90
2018-06-29T14:35:01.397Z,34.00
2018-06-29T14:35:34.434Z,34.00
2018-06-29T14:36:08.248Z,34.00
2018-06-29T14:36:41.320Z,34.00
2018-06-29T14:37:15.129Z,34.00
2018-06-29T14:37:48.174Z,34.00
2018-06-29T14:38:21.988Z,34.00
2018-06-29T14:38:55.024Z,34.00
2018-06-29T14:39:28.088Z,34.00
2018-06-29T14:40:01.264Z,34.00
2018-06-29T14:40:34.340Z,34.00
2018-06-29T14:41:07.409Z,34.00
2018-06-29T14:41:40.456Z,34.00
2018-06-29T14:42:13.516Z,33.90
2018-06-29T14:42:47.261Z,33.90
2018-06-29T14:43:20.301Z,33.90
2018-06-29T14:43:53.362Z,33.90
2018-06-29T14:44:26.433Z,33.90
2018-06-29T14:44:59.669Z,33.90
2018-06-29T14:45:33.275Z,33.80
2018-06-29T14:46:07.119Z,33.70
2018-06-29T14:46:40.154Z,33.70
2018-06-29T14:47:13.200Z,33.70
2018-06-29T14:47:46.235Z,33.70
2018-06-29T14:48:19.312Z,33.70
2018-06-29T14:48:52.360Z,33.70
2018-06-29T14:49:25.416Z,33.60
2018-06-29T14:49:58.445Z,33.70
2018-06-29T14:50:31.495Z,33.70
2018-06-29T14:51:04.521Z,33.70
2018-06-29T14:51:37.587Z,33.60
2018-06-29T14:52:10.628Z,33.70
2018-06-29T14:52:43.659Z,33.60
2018-06-29T14:53:17.473Z,33.60
2018-06-29T14:53:50.518Z,33.60
2018-06-29T14:54:23.576Z,33.70
2018-06-29T14:54:56.608Z,33.70
2018-06-29T14:55:29.659Z,33.60
2018-06-29T14:56:03.454Z,33.60